Terminal Aerodrome Forecast
Issued by NWS Tulsa, OK

Home | Current Version | Previous Version | Text Only | Print | Product List | Glossary On
Versions: 1 2 3 4 5 6 7 8 9 10 11 12
000
FTUS44 KTSA 272300
TAFFSM
TAF
KFSM 272320Z 2800/2824 09006KT P6SM SCT050
     FM280300 00000KT P6SM SCT250
     FM281400 09005KT P6SM SCT250
     FM281700 11008KT P6SM SCT050=

USA.gov is the U.S. government's official web portal to all federal, state and local government web resources and services.